Time;durP1;ratioP1;P1;durP2;ratioP2;P2;SDS_P1;SDS_P2;PMS_P1;PMS_P2;Temp;Humidity;BMP_temperature;BMP_pressure;BME280_temperature;BME280_humidity;BME280_pressure;Samples;Min_cycle;Max_cycle;Signal;HPM_P1;HPM_P2
2022/03/02 00:00:44;;;;;;;7.57;4.47;;;;;;;;;;5090186;28;20062;-67
2022/03/02 00:03:10;;;;;;;6.95;4.03;;;;;;;;;;5090783;28;20044;-67
2022/03/02 00:05:36;;;;;;;6.82;4.07;;;;;;;;;;5089788;28;20044;-67
2022/03/02 00:08:03;;;;;;;7.35;4.30;;;;;;;;;;5090111;28;20044;-67
2022/03/02 00:10:30;;;;;;;6.65;3.40;;;;;;;;;;5089998;28;20755;-67
2022/03/02 00:12:56;;;;;;;9.00;4.15;;;;;;;;;;5089917;28;20077;-67
2022/03/02 00:15:22;;;;;;;5.80;4.10;;;;;;;;;;5071657;28;20147;-67
2022/03/02 00:17:48;;;;;;;5.78;3.58;;;;;;;;;;5089791;28;20562;-67
2022/03/02 00:20:14;;;;;;;7.88;4.65;;;;;;;;;;5089947;28;20154;-68
2022/03/02 00:22:40;;;;;;;5.55;4.00;;;;;;;;;;5089849;28;20051;-67
2022/03/02 00:25:08;;;;;;;5.88;3.85;;;;;;;;;;5089513;28;20120;-67
2022/03/02 00:27:34;;;;;;;7.57;4.20;;;;;;;;;;5089223;28;20060;-68
2022/03/02 00:30:01;;;;;;;7.25;4.22;;;;;;;;;;5089966;28;20070;-68
2022/03/02 00:32:27;;;;;;;9.13;4.45;;;;;;;;;;5088941;28;20483;-68
2022/03/02 00:34:53;;;;;;;6.57;3.90;;;;;;;;;;5089587;28;20070;-68
2022/03/02 00:37:19;;;;;;;5.40;4.00;;;;;;;;;;5089421;28;20082;-68
2022/03/02 00:39:45;;;;;;;7.18;4.32;;;;;;;;;;5088687;28;20044;-68
2022/03/02 00:42:11;;;;;;;5.93;4.22;;;;;;;;;;5089428;28;20445;-68
2022/03/02 00:44:37;;;;;;;5.70;4.18;;;;;;;;;;5089261;28;20051;-68
2022/03/02 00:47:04;;;;;;;7.10;3.63;;;;;;;;;;5071115;28;20044;-68
2022/03/02 00:49:31;;;;;;;7.25;3.70;;;;;;;;;;5089157;28;20040;-68
2022/03/02 00:51:58;;;;;;;8.13;4.55;;;;;;;;;;5089275;28;20044;-68
2022/03/02 00:54:24;;;;;;;5.38;3.53;;;;;;;;;;5053644;28;20058;-68
2022/03/02 00:56:50;;;;;;;6.13;3.83;;;;;;;;;;5071190;28;20493;-68
2022/03/02 00:59:16;;;;;;;8.20;3.90;;;;;;;;;;5089357;28;20123;-68
2022/03/02 01:01:42;;;;;;;5.60;3.88;;;;;;;;;;5089117;28;20470;-68
2022/03/02 01:04:09;;;;;;;6.28;4.10;;;;;;;;;;5070759;28;20393;-68
2022/03/02 01:06:35;;;;;;;5.47;3.63;;;;;;;;;;5070742;28;20393;-68
2022/03/02 01:09:02;;;;;;;7.40;3.50;;;;;;;;;;5088650;28;20044;-68
2022/03/02 01:11:28;;;;;;;6.43;4.13;;;;;;;;;;5088750;28;20044;-68
2022/03/02 01:13:54;;;;;;;5.72;3.75;;;;;;;;;;5088946;28;20411;-67
2022/03/02 01:16:20;;;;;;;7.45;3.67;;;;;;;;;;5088561;28;20044;-67
2022/03/02 01:18:46;;;;;;;6.00;4.00;;;;;;;;;;5088342;28;20070;-67
2022/03/02 01:21:12;;;;;;;6.07;3.85;;;;;;;;;;5088724;28;20486;-68
2022/03/02 01:23:39;;;;;;;6.68;3.60;;;;;;;;;;5070141;28;20529;-68
2022/03/02 01:26:05;;;;;;;5.25;3.67;;;;;;;;;;5088693;28;20122;-67
2022/03/02 01:28:31;;;;;;;5.13;3.65;;;;;;;;;;5088392;28;20072;-68
2022/03/02 01:30:57;;;;;;;6.03;3.88;;;;;;;;;;5069449;28;20449;-67
2022/03/02 01:33:23;;;;;;;6.15;3.65;;;;;;;;;;5088310;28;20141;-68
2022/03/02 01:35:49;;;;;;;6.32;3.67;;;;;;;;;;5070299;28;20130;-68
2022/03/02 01:38:15;;;;;;;6.60;3.90;;;;;;;;;;5088407;28;20048;-68
2022/03/02 01:40:41;;;;;;;6.43;4.07;;;;;;;;;;5053137;28;20154;-68
2022/03/02 01:43:08;;;;;;;7.60;3.97;;;;;;;;;;5088332;28;20123;-69
2022/03/02 01:45:34;;;;;;;5.18;3.78;;;;;;;;;;5087667;28;20054;-68
2022/03/02 01:48:01;;;;;;;6.82;4.25;;;;;;;;;;5088413;28;20816;-69
2022/03/02 01:50:27;;;;;;;6.28;3.70;;;;;;;;;;5088353;28;20051;-68
2022/03/02 01:52:53;;;;;;;4.80;3.58;;;;;;;;;;5070057;28;20135;-69
2022/03/02 01:55:20;;;;;;;5.43;3.75;;;;;;;;;;5088550;28;20072;-68
2022/03/02 01:57:46;;;;;;;8.32;3.55;;;;;;;;;;5053172;28;20101;-69
2022/03/02 02:00:13;;;;;;;6.35;4.18;;;;;;;;;;5070154;28;20044;-68
2022/03/02 02:02:40;;;;;;;5.60;3.80;;;;;;;;;;5087611;28;20040;-68
2022/03/02 02:05:06;;;;;;;5.05;3.60;;;;;;;;;;5088200;28;20052;-68
2022/03/02 02:07:33;;;;;;;6.97;4.00;;;;;;;;;;5088033;28;20412;-69
2022/03/02 02:09:59;;;;;;;5.75;3.95;;;;;;;;;;5088080;28;20048;-68
2022/03/02 02:12:26;;;;;;;5.50;3.60;;;;;;;;;;5087884;28;20522;-68
2022/03/02 02:14:52;;;;;;;5.57;3.97;;;;;;;;;;5069839;28;20148;-69
2022/03/02 02:17:18;;;;;;;5.50;3.70;;;;;;;;;;5087381;28;20063;-68
2022/03/02 02:19:44;;;;;;;5.50;3.90;;;;;;;;;;5069774;28;20654;-69
2022/03/02 02:22:10;;;;;;;4.63;3.58;;;;;;;;;;5053151;28;20048;-68
2022/03/02 02:24:36;;;;;;;5.93;4.15;;;;;;;;;;5069685;28;20152;-68
2022/03/02 02:27:02;;;;;;;5.10;3.53;;;;;;;;;;5069778;28;20072;-68
2022/03/02 02:29:29;;;;;;;4.97;3.42;;;;;;;;;;5088274;28;20491;-68
2022/03/02 02:31:56;;;;;;;5.45;3.85;;;;;;;;;;5087575;28;20197;-68
2022/03/02 02:34:22;;;;;;;5.95;4.03;;;;;;;;;;5069278;28;20060;-68
2022/03/02 02:36:48;;;;;;;5.78;4.05;;;;;;;;;;5087598;28;20109;-68
2022/03/02 02:39:14;;;;;;;5.78;3.70;;;;;;;;;;5087310;28;20083;-68
2022/03/02 02:41:41;;;;;;;6.07;3.72;;;;;;;;;;5087296;28;20123;-68
2022/03/02 02:44:07;;;;;;;5.22;3.78;;;;;;;;;;5086569;28;20135;-67
2022/03/02 02:46:33;;;;;;;5.45;3.50;;;;;;;;;;5087309;28;20052;-67
2022/03/02 02:48:59;;;;;;;6.47;3.75;;;;;;;;;;5087294;28;20048;-67
2022/03/02 02:51:25;;;;;;;5.55;3.80;;;;;;;;;;5087190;28;20143;-67
2022/03/02 02:53:51;;;;;;;6.07;3.75;;;;;;;;;;5068814;28;20052;-68
2022/03/02 02:56:17;;;;;;;5.70;3.90;;;;;;;;;;5071218;28;20051;-67
2022/03/02 02:58:44;;;;;;;6.57;4.03;;;;;;;;;;5091020;28;20047;-69
2022/03/02 03:01:10;;;;;;;6.90;4.45;;;;;;;;;;5056009;28;20051;-68
2022/03/02 03:03:36;;;;;;;9.55;4.85;;;;;;;;;;5073055;28;20379;-68
2022/03/02 03:06:04;;;;;;;5.97;4.13;;;;;;;;;;5090605;28;20056;-67
2022/03/02 03:08:30;;;;;;;8.98;4.60;;;;;;;;;;5072195;28;20083;-68
2022/03/02 03:10:56;;;;;;;7.32;4.18;;;;;;;;;;5090651;28;20465;-67
2022/03/02 03:13:22;;;;;;;9.45;4.60;;;;;;;;;;5090529;28;20036;-67
2022/03/02 03:15:48;;;;;;;7.38;4.07;;;;;;;;;;5090612;28;20075;-67
2022/03/02 03:18:14;;;;;;;6.95;4.30;;;;;;;;;;5089947;28;20040;-68
2022/03/02 03:20:40;;;;;;;5.43;3.88;;;;;;;;;;5072117;28;20085;-68
2022/03/02 03:23:06;;;;;;;6.63;3.72;;;;;;;;;;5090554;28;20044;-68
2022/03/02 03:25:33;;;;;;;9.60;4.22;;;;;;;;;;5090226;28;20158;-67
2022/03/02 03:27:59;;;;;;;6.60;4.30;;;;;;;;;;5071776;28;20051;-67
2022/03/02 03:30:26;;;;;;;6.45;4.05;;;;;;;;;;5072046;28;20527;-68
2022/03/02 03:32:53;;;;;;;5.32;3.60;;;;;;;;;;5089817;28;20055;-67
2022/03/02 03:35:19;;;;;;;5.88;3.90;;;;;;;;;;5090038;28;20083;-67
2022/03/02 03:37:46;;;;;;;5.68;3.83;;;;;;;;;;5089751;28;20128;-68
2022/03/02 03:40:13;;;;;;;6.18;3.83;;;;;;;;;;5089537;28;20066;-67
2022/03/02 03:42:39;;;;;;;5.55;3.88;;;;;;;;;;5089870;28;20493;-68
2022/03/02 03:45:06;;;;;;;8.85;4.35;;;;;;;;;;5089548;28;20048;-67
2022/03/02 03:47:32;;;;;;;5.97;4.25;;;;;;;;;;5090416;28;20071;-68
2022/03/02 03:49:58;;;;;;;5.55;3.47;;;;;;;;;;5090483;28;20573;-68
2022/03/02 03:52:25;;;;;;;6.32;4.38;;;;;;;;;;5055674;28;20044;-68
2022/03/02 03:54:51;;;;;;;5.20;3.78;;;;;;;;;;5090237;28;20086;-68
2022/03/02 03:57:17;;;;;;;5.47;3.88;;;;;;;;;;5072028;28;20044;-67
2022/03/02 03:59:43;;;;;;;6.15;3.97;;;;;;;;;;5090288;28;20452;-68
2022/03/02 04:02:09;;;;;;;5.70;3.88;;;;;;;;;;5090327;28;20052;-67
2022/03/02 04:04:35;;;;;;;5.32;3.88;;;;;;;;;;5089835;28;20481;-67
2022/03/02 04:07:01;;;;;;;5.32;3.63;;;;;;;;;;5089174;28;20051;-67
2022/03/02 04:09:27;;;;;;;6.72;4.38;;;;;;;;;;5090060;28;20126;-67
2022/03/02 04:11:53;;;;;;;5.55;3.67;;;;;;;;;;5090284;28;20044;-67
2022/03/02 04:14:19;;;;;;;6.45;3.95;;;;;;;;;;5089933;28;20059;-67
2022/03/02 04:16:45;;;;;;;6.30;4.18;;;;;;;;;;5089415;28;20051;-67
2022/03/02 04:19:11;;;;;;;5.05;3.53;;;;;;;;;;5089757;28;20073;-68
2022/03/02 04:21:38;;;;;;;5.22;3.70;;;;;;;;;;5090118;28;20217;-67
2022/03/02 04:24:04;;;;;;;6.45;3.55;;;;;;;;;;5089275;28;20079;-69
2022/03/02 04:26:30;;;;;;;5.13;3.53;;;;;;;;;;5089631;28;20044;-69
2022/03/02 04:28:56;;;;;;;5.13;3.75;;;;;;;;;;5089830;28;20048;-69
2022/03/02 04:31:22;;;;;;;6.82;3.72;;;;;;;;;;5054521;28;20043;-69
2022/03/02 04:33:48;;;;;;;6.22;4.18;;;;;;;;;;5089390;28;20055;-69
2022/03/02 04:36:14;;;;;;;4.70;3.65;;;;;;;;;;5054550;28;20056;-69
2022/03/02 04:38:40;;;;;;;5.35;3.85;;;;;;;;;;5071739;28;20379;-69
2022/03/02 04:41:06;;;;;;;7.10;4.03;;;;;;;;;;5054822;28;20519;-69
2022/03/02 04:43:32;;;;;;;5.57;4.05;;;;;;;;;;5088993;28;20051;-69
2022/03/02 04:45:59;;;;;;;5.63;3.85;;;;;;;;;;5089320;28;20131;-69
2022/03/02 04:48:25;;;;;;;5.20;3.80;;;;;;;;;;5089085;28;20387;-69
2022/03/02 04:50:51;;;;;;;5.20;3.70;;;;;;;;;;5089472;28;20052;-69
2022/03/02 04:53:18;;;;;;;5.05;3.63;;;;;;;;;;5089177;28;20127;-69
2022/03/02 04:55:45;;;;;;;5.40;3.72;;;;;;;;;;5089059;28;20036;-69
2022/03/02 04:58:11;;;;;;;5.20;3.55;;;;;;;;;;5089057;28;20127;-69
2022/03/02 05:00:37;;;;;;;6.13;4.10;;;;;;;;;;5053453;28;20056;-70
2022/03/02 05:03:04;;;;;;;5.53;4.20;;;;;;;;;;5070773;28;20132;-69
2022/03/02 05:05:32;;;;;;;6.47;4.18;;;;;;;;;;5089271;28;20044;-67
2022/03/02 05:07:58;;;;;;;5.70;3.92;;;;;;;;;;5088971;28;20126;-67
2022/03/02 05:10:25;;;;;;;4.50;3.33;;;;;;;;;;5088093;28;20097;-67
2022/03/02 05:12:51;;;;;;;12.13;3.90;;;;;;;;;;5088737;28;20140;-69
2022/03/02 05:15:19;;;;;;;8.18;4.60;;;;;;;;;;5071134;28;20365;-68
2022/03/02 05:17:45;;;;;;;6.82;4.22;;;;;;;;;;5088513;28;20128;-68
2022/03/02 05:20:12;;;;;;;7.35;4.10;;;;;;;;;;5088896;28;20131;-68
2022/03/02 05:22:38;;;;;;;10.50;4.85;;;;;;;;;;5088863;28;20052;-69
2022/03/02 05:25:06;;;;;;;8.10;4.43;;;;;;;;;;5088364;28;20089;-68
2022/03/02 05:27:32;;;;;;;5.63;3.60;;;;;;;;;;5088610;28;20045;-68
2022/03/02 05:29:58;;;;;;;6.38;3.88;;;;;;;;;;5088157;28;20139;-68
2022/03/02 05:32:24;;;;;;;5.95;3.90;;;;;;;;;;5087431;28;20055;-69
2022/03/02 05:34:50;;;;;;;7.80;4.20;;;;;;;;;;5087800;28;20060;-68
2022/03/02 05:37:16;;;;;;;6.47;4.15;;;;;;;;;;5088610;28;20047;-68
2022/03/02 05:39:42;;;;;;;6.25;3.92;;;;;;;;;;5088469;28;20043;-69
2022/03/02 05:42:08;;;;;;;6.63;3.72;;;;;;;;;;5088323;28;20108;-68
2022/03/02 05:44:35;;;;;;;7.07;4.10;;;;;;;;;;5087776;28;20082;-68
2022/03/02 05:47:01;;;;;;;7.88;4.20;;;;;;;;;;5070336;28;20138;-68
2022/03/02 05:49:27;;;;;;;6.13;4.05;;;;;;;;;;5088432;28;20582;-69
2022/03/02 05:51:53;;;;;;;7.47;4.30;;;;;;;;;;5070020;28;20047;-68
2022/03/02 05:54:19;;;;;;;5.72;3.67;;;;;;;;;;5088318;28;20040;-68
2022/03/02 05:56:45;;;;;;;6.75;3.72;;;;;;;;;;5087883;28;20040;-68
2022/03/02 05:59:12;;;;;;;5.32;3.58;;;;;;;;;;5070489;28;20082;-68
2022/03/02 06:01:39;;;;;;;5.82;4.10;;;;;;;;;;5070173;28;20450;-68
2022/03/02 06:04:05;;;;;;;5.55;3.72;;;;;;;;;;5070182;28;20048;-68
2022/03/02 06:06:35;;;;;;;4.97;3.90;;;;;;;;;;5069631;28;20150;-69
2022/03/02 06:09:03;;;;;;;6.72;3.85;;;;;;;;;;5087196;28;20048;-69
2022/03/02 06:11:29;;;;;;;6.43;3.72;;;;;;;;;;5069175;28;20052;-67
2022/03/02 06:13:55;;;;;;;7.45;4.65;;;;;;;;;;5087396;28;20332;-68
2022/03/02 06:16:22;;;;;;;5.95;4.03;;;;;;;;;;5087091;28;20075;-67
2022/03/02 06:18:48;;;;;;;6.38;3.65;;;;;;;;;;5069144;28;20051;-68
2022/03/02 06:21:19;;;;;;;6.22;4.60;;;;;;;;;;5087588;28;20044;-67
2022/03/02 06:23:45;;;;;;;5.72;3.88;;;;;;;;;;5087264;28;20379;-67
2022/03/02 06:26:11;;;;;;;7.07;4.18;;;;;;;;;;5087274;28;20193;-68
2022/03/02 06:28:37;;;;;;;4.82;3.47;;;;;;;;;;5069163;28;20052;-67
2022/03/02 06:31:04;;;;;;;6.75;4.03;;;;;;;;;;5089254;28;20055;-67
2022/03/02 06:33:30;;;;;;;5.70;3.92;;;;;;;;;;5091212;28;20044;-67
2022/03/02 06:35:56;;;;;;;4.90;3.85;;;;;;;;;;5090852;28;20052;-67
2022/03/02 06:38:22;;;;;;;6.40;3.88;;;;;;;;;;5090687;28;20048;-67
2022/03/02 06:40:51;;;;;;;4.97;3.50;;;;;;;;;;5091000;28;20051;-67
2022/03/02 06:43:19;;;;;;;5.60;4.18;;;;;;;;;;5091278;28;20358;-68
2022/03/02 06:45:55;;;;;;;5.50;3.83;;;;;;;;;;5091518;28;20047;-67
2022/03/02 06:48:27;;;;;;;9.10;3.67;;;;;;;;;;5073095;28;20063;-67
2022/03/02 06:50:55;;;;;;;7.40;3.88;;;;;;;;;;5073972;28;20406;-67
2022/03/02 06:53:42;;;;;;;5.63;3.85;;;;;;;;;;5091560;28;20398;-67
2022/03/02 06:56:08;;;;;;;6.15;4.00;;;;;;;;;;5091807;28;20124;-68
2022/03/02 06:58:39;;;;;;;5.97;4.10;;;;;;;;;;5091973;28;20059;-68
2022/03/02 07:01:06;;;;;;;6.45;4.05;;;;;;;;;;5090921;28;20054;-67
2022/03/02 07:03:35;;;;;;;5.63;3.97;;;;;;;;;;5091657;28;20055;-69
2022/03/02 07:06:01;;;;;;;8.73;3.42;;;;;;;;;;5073738;28;20087;-68
2022/03/02 07:08:28;;;;;;;5.75;3.80;;;;;;;;;;5072844;28;20134;-68
2022/03/02 07:10:55;;;;;;;5.95;4.15;;;;;;;;;;5090977;28;20040;-68
2022/03/02 07:13:21;;;;;;;5.57;4.07;;;;;;;;;;5091293;28;20140;-68
2022/03/02 07:15:48;;;;;;;5.40;3.80;;;;;;;;;;5072973;28;20155;-68
2022/03/02 07:18:15;;;;;;;5.88;3.92;;;;;;;;;;5091115;28;20052;-68
2022/03/02 07:20:42;;;;;;;5.28;3.85;;;;;;;;;;5072488;28;20421;-68
2022/03/02 07:23:15;;;;;;;6.65;4.30;;;;;;;;;;5073459;28;20055;-68
2022/03/02 07:25:42;;;;;;;5.47;3.35;;;;;;;;;;5091251;28;20052;-67
2022/03/02 07:28:10;;;;;;;5.45;4.00;;;;;;;;;;5091448;28;20050;-69
2022/03/02 07:30:36;;;;;;;6.10;3.80;;;;;;;;;;5072171;28;20063;-67
2022/03/02 07:33:03;;;;;;;5.82;3.97;;;;;;;;;;5072794;28;20405;-68
2022/03/02 07:35:34;;;;;;;5.80;3.40;;;;;;;;;;5091184;28;20051;-69
2022/03/02 07:38:01;;;;;;;5.32;4.00;;;;;;;;;;5091267;28;20048;-69
2022/03/02 07:40:27;;;;;;;6.63;4.70;;;;;;;;;;5090338;28;20048;-66
2022/03/02 07:42:53;;;;;;;7.57;4.40;;;;;;;;;;5071158;28;20040;-66
2022/03/02 07:45:19;;;;;;;7.28;4.05;;;;;;;;;;5056109;28;20087;-66
2022/03/02 07:47:45;;;;;;;11.02;4.30;;;;;;;;;;5090773;28;20449;-67
2022/03/02 07:50:13;;;;;;;6.93;4.32;;;;;;;;;;5072013;28;20378;-66
2022/03/02 07:52:39;;;;;;;6.22;4.22;;;;;;;;;;5090563;28;20048;-66
2022/03/02 07:55:10;;;;;;;7.00;4.13;;;;;;;;;;5090775;28;20505;-67
2022/03/02 07:57:39;;;;;;;9.75;4.45;;;;;;;;;;5090441;28;20478;-66
2022/03/02 08:00:05;;;;;;;6.70;4.05;;;;;;;;;;5072560;28;20081;-67
2022/03/02 08:02:32;;;;;;;6.38;4.15;;;;;;;;;;5072035;28;20040;-67
2022/03/02 08:04:59;;;;;;;9.07;4.38;;;;;;;;;;5090349;28;20112;-66
2022/03/02 08:07:25;;;;;;;10.98;3.92;;;;;;;;;;5090050;28;20060;-66
2022/03/02 08:09:52;;;;;;;6.53;3.88;;;;;;;;;;5071813;28;20059;-67
2022/03/02 08:12:22;;;;;;;6.03;3.83;;;;;;;;;;5070825;28;20487;-68
2022/03/02 08:14:48;;;;;;;5.70;3.97;;;;;;;;;;5089531;28;20414;-68
2022/03/02 08:17:14;;;;;;;6.07;4.10;;;;;;;;;;5089409;28;20374;-66
2022/03/02 08:19:40;;;;;;;7.68;3.90;;;;;;;;;;5070997;28;20147;-67
2022/03/02 08:22:11;;;;;;;6.35;3.90;;;;;;;;;;5071365;28;20134;-69
2022/03/02 08:24:41;;;;;;;5.65;4.18;;;;;;;;;;5070583;28;20083;-68
2022/03/02 08:27:07;;;;;;;6.68;4.40;;;;;;;;;;5071283;28;20134;-68
2022/03/02 08:29:33;;;;;;;6.85;4.30;;;;;;;;;;5072185;28;20051;-67
2022/03/02 08:32:01;;;;;;;5.38;4.00;;;;;;;;;;5089220;28;20106;-68
2022/03/02 08:34:29;;;;;;;5.57;3.97;;;;;;;;;;5089673;28;20060;-67
2022/03/02 08:36:55;;;;;;;5.43;4.00;;;;;;;;;;5090105;28;20055;-68
2022/03/02 08:39:22;;;;;;;5.80;3.95;;;;;;;;;;5089697;28;20044;-67
2022/03/02 08:41:48;;;;;;;5.25;3.75;;;;;;;;;;5089695;28;20206;-68
2022/03/02 08:44:15;;;;;;;6.07;4.15;;;;;;;;;;5089223;28;20040;-71
2022/03/02 08:46:42;;;;;;;15.27;4.15;;;;;;;;;;5089435;28;20044;-67
2022/03/02 08:49:08;;;;;;;8.90;4.50;;;;;;;;;;5071206;28;20047;-67
2022/03/02 08:51:35;;;;;;;9.20;4.55;;;;;;;;;;5089582;28;20055;-67
2022/03/02 08:54:03;;;;;;;6.35;4.32;;;;;;;;;;5089426;28;20055;-66
2022/03/02 08:56:32;;;;;;;8.35;5.00;;;;;;;;;;5089543;28;20079;-68
2022/03/02 08:58:58;;;;;;;6.70;5.00;;;;;;;;;;5089036;28;20123;-68
2022/03/02 09:01:24;;;;;;;7.55;4.75;;;;;;;;;;5089109;28;20043;-68
2022/03/02 09:03:53;;;;;;;9.30;5.38;;;;;;;;;;5089287;28;20395;-68
2022/03/02 09:06:20;;;;;;;9.50;5.80;;;;;;;;;;5075228;28;20066;-68
2022/03/02 09:08:46;;;;;;;13.93;5.13;;;;;;;;;;5078372;28;20059;-67
2022/03/02 09:11:12;;;;;;;13.00;5.80;;;;;;;;;;5088467;28;20038;-68
2022/03/02 09:13:39;;;;;;;12.55;5.00;;;;;;;;;;5087819;28;20123;-69
2022/03/02 09:16:06;;;;;;;11.43;5.60;;;;;;;;;;5068510;28;20044;-67
2022/03/02 09:18:32;;;;;;;11.07;6.28;;;;;;;;;;5050669;28;20080;-68
2022/03/02 09:21:01;;;;;;;11.05;5.97;;;;;;;;;;5068803;28;20090;-66
2022/03/02 09:23:31;;;;;;;11.32;6.00;;;;;;;;;;5068488;28;20045;-66
2022/03/02 09:26:02;;;;;;;16.00;6.28;;;;;;;;;;5075168;28;20060;-66
2022/03/02 09:28:32;;;;;;;11.15;6.25;;;;;;;;;;5070564;28;20048;-66
2022/03/02 09:31:02;;;;;;;9.88;6.65;;;;;;;;;;5053295;28;20047;-66
2022/03/02 09:33:28;;;;;;;12.73;6.95;;;;;;;;;;5087116;28;20056;-66
2022/03/02 09:35:56;;;;;;;10.70;6.95;;;;;;;;;;5070199;28;20540;-66
2022/03/02 09:38:23;;;;;;;12.73;7.40;;;;;;;;;;5086025;28;20040;-67
2022/03/02 09:40:50;;;;;;;12.32;7.65;;;;;;;;;;5069715;28;20047;-67
2022/03/02 09:43:19;;;;;;;11.75;7.85;;;;;;;;;;5052746;28;20048;-67
2022/03/02 09:45:49;;;;;;;12.73;8.13;;;;;;;;;;5086838;28;20055;-68
2022/03/02 09:48:22;;;;;;;15.93;9.23;;;;;;;;;;5088244;28;20348;-67
2022/03/02 09:50:49;;;;;;;13.07;9.10;;;;;;;;;;5088306;28;20054;-67
2022/03/02 09:53:16;;;;;;;13.02;8.82;;;;;;;;;;5088722;28;20051;-67
2022/03/02 09:55:44;;;;;;;15.85;10.35;;;;;;;;;;5088057;28;20100;-67
2022/03/02 09:58:14;;;;;;;18.77;10.25;;;;;;;;;;5070444;28;20051;-67
2022/03/02 10:00:43;;;;;;;13.60;9.98;;;;;;;;;;5086653;28;20451;-67
2022/03/02 10:03:11;;;;;;;14.33;10.73;;;;;;;;;;5081743;28;20405;-67
2022/03/02 10:05:42;;;;;;;14.57;10.45;;;;;;;;;;5068772;28;20063;-67
2022/03/02 10:08:09;;;;;;;17.55;11.35;;;;;;;;;;5080523;28;20133;-67
2022/03/02 10:10:37;;;;;;;15.77;10.98;;;;;;;;;;5088004;28;20055;-66
2022/03/02 10:13:05;;;;;;;18.07;13.03;;;;;;;;;;5087581;28;20123;-65
2022/03/02 10:15:31;;;;;;;17.35;13.07;;;;;;;;;;5087730;28;20522;-67
2022/03/02 10:17:59;;;;;;;19.77;13.68;;;;;;;;;;5088311;28;20075;-67
2022/03/02 10:20:26;;;;;;;21.50;13.80;;;;;;;;;;5087056;28;20108;-67
2022/03/02 10:23:11;;;;;;;19.17;13.60;;;;;;;;;;5087805;28;20040;-68
2022/03/02 10:25:46;;;;;;;19.58;14.85;;;;;;;;;;5074627;28;20101;-68
2022/03/02 10:28:16;;;;;;;18.60;14.13;;;;;;;;;;5069746;28;20044;-67
2022/03/02 10:30:42;;;;;;;19.67;15.20;;;;;;;;;;5087672;28;20090;-67
2022/03/02 10:33:22;;;;;;;21.20;15.20;;;;;;;;;;5087296;28;20059;-67
2022/03/02 10:35:53;;;;;;;18.35;14.77;;;;;;;;;;5087362;28;20110;-66
2022/03/02 10:38:26;;;;;;;20.33;14.73;;;;;;;;;;5087640;28;20047;-67
2022/03/02 10:40:53;;;;;;;19.73;15.73;;;;;;;;;;5087162;28;20386;-68
2022/03/02 10:43:21;;;;;;;19.67;15.15;;;;;;;;;;5086895;28;20466;-67
2022/03/02 10:45:51;;;;;;;22.08;16.27;;;;;;;;;;5087631;28;20040;-67
2022/03/02 10:48:19;;;;;;;22.48;15.68;;;;;;;;;;5086732;28;20463;-65
2022/03/02 10:50:48;;;;;;;23.80;16.35;;;;;;;;;;5086860;28;20048;-65
2022/03/02 10:53:18;;;;;;;19.30;14.80;;;;;;;;;;5069804;28;20055;-64
2022/03/02 10:55:45;;;;;;;20.35;15.57;;;;;;;;;;5086917;28;20157;-65
2022/03/02 10:58:13;;;;;;;21.00;15.82;;;;;;;;;;5087673;28;20122;-67
2022/03/02 11:00:39;;;;;;;20.35;15.30;;;;;;;;;;5087626;28;20048;-66
2022/03/02 11:03:07;;;;;;;20.73;15.90;;;;;;;;;;5069771;28;20048;-66
2022/03/02 11:05:34;;;;;;;20.35;15.50;;;;;;;;;;5103474;28;20397;-66
2022/03/02 11:08:00;;;;;;;21.05;16.42;;;;;;;;;;5068344;28;20470;-67
2022/03/02 11:10:31;;;;;;;20.77;15.23;;;;;;;;;;5086530;28;20074;-67
2022/03/02 11:12:59;;;;;;;19.90;16.20;;;;;;;;;;5067427;28;20120;-67
2022/03/02 11:15:25;;;;;;;21.35;15.40;;;;;;;;;;5065105;28;20048;-67
2022/03/02 11:17:55;;;;;;;21.70;15.80;;;;;;;;;;5073208;28;20048;-66
2022/03/02 11:20:22;;;;;;;19.90;15.35;;;;;;;;;;5073173;28;20048;-65
2022/03/02 11:23:04;;;;;;;20.65;15.38;;;;;;;;;;5091156;28;20074;-65
2022/03/02 11:25:41;;;;;;;21.75;15.82;;;;;;;;;;5072663;28;20062;-66
2022/03/02 11:28:07;;;;;;;20.10;15.77;;;;;;;;;;5090709;28;20466;-67
2022/03/02 11:30:34;;;;;;;20.25;15.82;;;;;;;;;;5072154;28;20414;-67
2022/03/02 11:33:07;;;;;;;20.88;15.48;;;;;;;;;;5090712;28;20063;-68
2022/03/02 11:35:37;;;;;;;19.80;15.55;;;;;;;;;;5090361;28;20516;-66
2022/03/02 11:38:05;;;;;;;19.42;14.95;;;;;;;;;;5090720;28;20036;-65
2022/03/02 11:40:45;;;;;;;20.83;15.38;;;;;;;;;;5091091;28;20492;-66
2022/03/02 11:43:14;;;;;;;19.52;15.57;;;;;;;;;;5090679;28;20485;-65
2022/03/02 11:45:40;;;;;;;19.20;14.52;;;;;;;;;;5090400;28;20048;-65
2022/03/02 11:48:10;;;;;;;19.48;14.73;;;;;;;;;;5055229;28;20051;-65
2022/03/02 11:50:36;;;;;;;21.15;15.00;;;;;;;;;;5072583;28;20139;-66
2022/03/02 11:53:08;;;;;;;19.55;15.07;;;;;;;;;;5071948;28;20055;-66
2022/03/02 11:55:34;;;;;;;19.92;14.52;;;;;;;;;;5090496;28;20319;-65
2022/03/02 11:58:01;;;;;;;19.55;15.10;;;;;;;;;;5090248;28;20044;-65
2022/03/02 12:00:28;;;;;;;18.80;13.65;;;;;;;;;;5089722;28;20048;-65
2022/03/02 12:02:59;;;;;;;19.60;15.00;;;;;;;;;;5090571;28;20127;-65
2022/03/02 12:05:27;;;;;;;19.23;14.75;;;;;;;;;;5089944;28;20394;-65
2022/03/02 12:08:01;;;;;;;18.43;14.10;;;;;;;;;;5072136;28;20048;-65
2022/03/02 12:10:29;;;;;;;18.85;13.38;;;;;;;;;;5072030;28;20052;-66
2022/03/02 12:12:55;;;;;;;18.75;14.25;;;;;;;;;;5090240;28;20434;-65
2022/03/02 12:15:22;;;;;;;18.45;13.95;;;;;;;;;;5071521;28;20621;-66
2022/03/02 12:17:49;;;;;;;19.20;13.60;;;;;;;;;;5071856;28;20562;-65
2022/03/02 12:20:17;;;;;;;17.00;13.15;;;;;;;;;;5054385;28;20119;-65
2022/03/02 12:22:45;;;;;;;18.13;14.05;;;;;;;;;;5089866;28;20127;-65
2022/03/02 12:25:12;;;;;;;17.25;13.48;;;;;;;;;;5089719;28;20060;-66
2022/03/02 12:27:39;;;;;;;16.67;13.25;;;;;;;;;;5089094;28;20132;-66
2022/03/02 12:30:07;;;;;;;17.52;13.30;;;;;;;;;;5071730;28;20044;-66
2022/03/02 12:32:35;;;;;;;16.42;12.77;;;;;;;;;;5068360;28;20122;-66
2022/03/02 12:35:02;;;;;;;16.77;13.75;;;;;;;;;;5069397;28;20139;-68
2022/03/02 12:37:29;;;;;;;17.50;13.57;;;;;;;;;;5068014;28;20050;-66
2022/03/02 12:39:55;;;;;;;17.42;12.93;;;;;;;;;;5067961;28;20079;-66
2022/03/02 12:42:21;;;;;;;16.42;12.90;;;;;;;;;;5068164;28;20101;-66
2022/03/02 12:44:50;;;;;;;15.18;12.68;;;;;;;;;;5067563;28;20041;-67
2022/03/02 12:47:21;;;;;;;16.45;12.63;;;;;;;;;;5069509;28;20056;-67
2022/03/02 12:49:50;;;;;;;17.48;12.25;;;;;;;;;;5067792;28;20044;-66
2022/03/02 12:52:17;;;;;;;17.80;13.80;;;;;;;;;;5069129;28;20121;-66
2022/03/02 12:54:44;;;;;;;18.15;12.60;;;;;;;;;;5069210;28;20083;-67
2022/03/02 12:57:11;;;;;;;21.67;12.88;;;;;;;;;;5069262;28;20396;-68
2022/03/02 12:59:37;;;;;;;19.63;12.75;;;;;;;;;;5066900;28;20106;-67
2022/03/02 13:02:05;;;;;;;18.92;12.45;;;;;;;;;;5066225;28;20048;-68
2022/03/02 13:04:49;;;;;;;17.77;12.90;;;;;;;;;;5080753;28;20457;-67
2022/03/02 13:07:34;;;;;;;15.52;11.90;;;;;;;;;;5065833;28;20046;-68
2022/03/02 13:10:03;;;;;;;16.55;12.77;;;;;;;;;;5067515;28;20051;-67
2022/03/02 13:12:44;;;;;;;16.30;12.57;;;;;;;;;;5066947;28;20036;-68
2022/03/02 13:15:30;;;;;;;14.88;12.18;;;;;;;;;;5074291;28;20119;-68
2022/03/02 13:18:09;;;;;;;19.27;12.82;;;;;;;;;;5059293;28;20048;-67
2022/03/02 13:20:42;;;;;;;14.90;11.80;;;;;;;;;;5065366;28;20359;-67
2022/03/02 13:23:19;;;;;;;16.70;12.75;;;;;;;;;;5066132;28;20132;-67
2022/03/02 13:26:01;;;;;;;15.82;11.45;;;;;;;;;;5064365;28;20047;-67
2022/03/02 13:28:31;;;;;;;15.18;11.52;;;;;;;;;;5064102;28;20076;-67
2022/03/02 13:31:06;;;;;;;16.05;11.38;;;;;;;;;;5064825;28;20097;-67
2022/03/02 13:33:51;;;;;;;18.15;12.52;;;;;;;;;;5047573;28;20084;-67
2022/03/02 13:36:35;;;;;;;15.63;12.18;;;;;;;;;;5045642;28;20063;-67
2022/03/02 13:39:15;;;;;;;18.13;12.50;;;;;;;;;;5046003;28;20053;-68
2022/03/02 13:41:43;;;;;;;17.17;12.20;;;;;;;;;;5045795;28;20230;-65
2022/03/02 13:44:28;;;;;;;16.45;12.05;;;;;;;;;;5044477;28;20037;-67
2022/03/02 13:47:12;;;;;;;14.32;11.82;;;;;;;;;;5042665;28;20052;-66
2022/03/02 13:49:48;;;;;;;14.05;11.63;;;;;;;;;;5046204;28;20073;-66
2022/03/02 13:52:15;;;;;;;14.77;11.65;;;;;;;;;;5045080;28;20072;-66
2022/03/02 13:54:41;;;;;;;19.27;12.35;;;;;;;;;;5046047;28;20055;-66
2022/03/02 13:57:17;;;;;;;23.60;12.13;;;;;;;;;;5044516;28;20047;-67
2022/03/02 13:59:43;;;;;;;14.55;11.60;;;;;;;;;;5043661;28;20045;-67
2022/03/02 14:02:09;;;;;;;25.23;12.45;;;;;;;;;;5046266;28;20045;-67
2022/03/02 14:04:35;;;;;;;14.10;12.02;;;;;;;;;;5044900;28;20080;-67
2022/03/02 14:07:04;;;;;;;14.48;11.93;;;;;;;;;;5045462;28;20435;-67
2022/03/02 14:09:30;;;;;;;17.40;12.20;;;;;;;;;;5045502;28;20041;-67
2022/03/02 14:11:58;;;;;;;14.98;11.38;;;;;;;;;;5044921;28;20221;-67
2022/03/02 14:14:28;;;;;;;15.60;12.02;;;;;;;;;;5044180;28;20403;-67
2022/03/02 14:16:58;;;;;;;15.02;11.63;;;;;;;;;;5044808;28;20055;-67
2022/03/02 14:19:24;;;;;;;14.98;12.48;;;;;;;;;;5046102;28;20590;-67
2022/03/02 14:21:58;;;;;;;15.70;11.68;;;;;;;;;;5044771;28;20060;-67
2022/03/02 14:24:25;;;;;;;13.50;11.40;;;;;;;;;;5045978;28;20064;-68
2022/03/02 14:27:03;;;;;;;15.43;11.32;;;;;;;;;;5045130;28;20048;-67
2022/03/02 14:29:30;;;;;;;13.98;11.20;;;;;;;;;;5044872;28;20064;-67
2022/03/02 14:31:58;;;;;;;14.95;11.45;;;;;;;;;;5055062;28;20059;-67
2022/03/02 14:34:26;;;;;;;14.93;11.43;;;;;;;;;;5074261;28;20162;-68
2022/03/02 14:37:08;;;;;;;12.98;10.75;;;;;;;;;;5085906;28;20044;-67